PWSweather.com
Personal Weather Stations
Station Observations
J24K28P63
Vysocina, PocatkyCZ 39464

VysocinaPocatkyCZ 39464

Lat: 49.2594238, Lon: 15.2331769

Elevation: 2011

Station Type: Vantage Pro2+

http://meteo-jirkalina.com

High Low Average
Temperature 73.5°F23.1°C 43.9°F6.6°C 62.5°F16.9°C
Dew Point 50.5°F10.3°C 32.0°F0.0°C 44.8°F7.1°C
Winds 12.0 mph 19.3 kmh Calm Calm 4.0 mph ENE6.4 kmh ENE
Wind Gusts 15.0 mph24.1 kmh -- 6.0 mph9.7 kmh
Humidity 100% 28% 57%
Pressure 30.23 in1023.7 mb 30.10 in1019.3 mb -
Precipitation 0.01 in0.3 mm - -
Hour Temp Dew Point Humidity Winds Wind Gusts Pressure Precip Precip Rate Daily Precip Total
12:00 AM 47.7°F8.7°C 47.4°F8.6°C 99% 3.2 mph ENE5.1 kmh ENE 4.0 mph6.4 kmh 30.11 in1019.6 mb - 0.00 in0.0 mm 0.00 in0.0 mm
12:30 AM 47.9°F8.8°C 47.9°F8.8°C 100% 2.2 mph NE3.5 kmh NE 3.0 mph4.8 kmh 30.11 in1019.6 mb - 0.00 in0.0 mm 0.00 in0.0 mm
01:00 AM 47.3°F8.5°C 47.3°F8.5°C 100% Calm Calm -- 30.12 in1020.0 mb - 0.01 in0.3 mm 0.01 in0.3 mm
01:30 AM 47.0°F8.3°C 47.0°F8.3°C 100% Calm Calm -- 30.12 in1020.0 mb - 0.00 in0.0 mm 0.01 in0.3 mm
02:00 AM 46.5°F8.1°C 46.5°F8.1°C 100% Calm Calm -- 30.12 in1020.0 mb - 0.00 in0.0 mm 0.01 in0.3 mm
02:30 AM 46.0°F7.8°C 45.7°F7.6°C 99% 3.6 mph NE5.8 kmh NE 4.0 mph6.4 kmh 30.12 in1020.0 mb - 0.00 in0.0 mm 0.01 in0.3 mm
03:00 AM 45.4°F7.4°C 44.9°F7.2°C 98% 2.6 mph NE4.2 kmh NE 3.0 mph4.8 kmh 30.12 in1020.0 mb - 0.00 in0.0 mm 0.01 in0.3 mm
03:30 AM 44.8°F7.1°C 44.3°F6.8°C 98% 2.8 mph NE4.5 kmh NE 4.0 mph6.4 kmh 30.12 in1020.0 mb - 0.00 in0.0 mm 0.01 in0.3 mm
04:00 AM 44.9°F7.2°C 44.4°F6.9°C 98% Calm Calm -- 30.12 in1020.0 mb - 0.00 in0.0 mm 0.01 in0.3 mm
04:30 AM 46.1°F7.8°C 44.7°F7.1°C 95% Calm Calm -- 30.20 in1022.7 mb - 0.00 in0.0 mm 0.01 in0.3 mm
04:40 AM 46.3°F7.9°C 44.9°F7.2°C 95% Calm Calm -- 30.20 in1022.7 mb - 0.00 in0.0 mm 0.01 in0.3 mm
04:50 AM 46.7°F8.2°C 45.6°F7.6°C 96% Calm Calm -- 30.20 in1022.7 mb - 0.00 in0.0 mm 0.01 in0.3 mm
05:00 AM 46.8°F8.2°C 45.4°F7.4°C 95% Calm Calm -- 30.20 in1022.7 mb - 0.00 in0.0 mm 0.01 in0.3 mm
05:10 AM 47.3°F8.5°C 46.0°F7.8°C 95% Calm Calm -- 30.20 in1022.7 mb - 0.00 in0.0 mm 0.01 in0.3 mm
05:20 AM 48.1°F8.9°C 46.7°F8.2°C 95% Calm Calm -- 30.21 in1023.0 mb - 0.00 in0.0 mm 0.01 in0.3 mm
05:30 AM 46.1°F7.8°C 45.8°F7.7°C 99% 1.8 mph NE2.9 kmh NE 3.0 mph4.8 kmh 30.14 in1020.7 mb - 0.00 in0.0 mm 0.01 in0.3 mm
05:40 AM 49.2°F9.6°C 47.8°F8.8°C 95% Calm Calm -- 30.21 in1023.0 mb - 0.00 in0.0 mm 0.01 in0.3 mm
05:50 AM 49.7°F9.8°C 48.3°F9.1°C 95% Calm Calm 1.0 mph1.6 kmh 30.21 in1023.0 mb - 0.00 in0.0 mm 0.01 in0.3 mm
06:00 AM 52.2°F11.2°C 50.3°F10.2°C 93% Calm Calm 1.0 mph1.6 kmh 30.22 in1023.4 mb - 0.00 in0.0 mm 0.01 in0.3 mm
06:10 AM 54.6°F12.6°C 50.2°F10.1°C 85% Calm Calm 1.0 mph1.6 kmh 30.22 in1023.4 mb - 0.00 in0.0 mm 0.01 in0.3 mm
06:20 AM 57.4°F14.1°C 49.9°F9.9°C 76% Calm Calm 1.0 mph1.6 kmh 30.22 in1023.4 mb - 0.00 in0.0 mm 0.01 in0.3 mm
06:30 AM 59.0°F15.0°C 50.4°F10.2°C 73% Calm Calm 1.0 mph1.6 kmh 30.23 in1023.7 mb - 0.00 in0.0 mm 0.01 in0.3 mm
06:40 AM 60.3°F15.7°C 50.5°F10.3°C 70% Calm Calm 3.0 mph4.8 kmh 30.23 in1023.7 mb - 0.00 in0.0 mm 0.01 in0.3 mm
06:50 AM 59.8°F15.4°C 50.0°F10.0°C 70% 1.0 mph E1.6 kmh E 2.0 mph3.2 kmh 30.23 in1023.7 mb - 0.00 in0.0 mm 0.01 in0.3 mm
07:00 AM 61.4°F16.3°C 50.0°F10.0°C 66% 1.0 mph E1.6 kmh E 2.0 mph3.2 kmh 30.23 in1023.7 mb - 0.00 in0.0 mm 0.01 in0.3 mm
07:10 AM 61.8°F16.6°C 49.1°F9.5°C 63% Calm Calm 1.0 mph1.6 kmh 30.23 in1023.7 mb - 0.00 in0.0 mm 0.01 in0.3 mm
07:20 AM 62.3°F16.8°C 50.4°F10.2°C 65% 1.0 mph E1.6 kmh E 2.0 mph3.2 kmh 30.23 in1023.7 mb - 0.00 in0.0 mm 0.01 in0.3 mm
07:30 AM 61.7°F16.5°C 47.7°F8.7°C 60% 3.0 mph E4.8 kmh E 5.0 mph8.0 kmh 30.23 in1023.7 mb - 0.00 in0.0 mm 0.01 in0.3 mm
07:40 AM 62.1°F16.7°C 49.3°F9.6°C 63% 3.0 mph E4.8 kmh E 3.0 mph4.8 kmh 30.23 in1023.7 mb - 0.00 in0.0 mm 0.01 in0.3 mm
07:50 AM 63.1°F17.3°C 49.4°F9.7°C 61% 3.0 mph E4.8 kmh E 7.0 mph11.3 kmh 30.23 in1023.7 mb - 0.00 in0.0 mm 0.01 in0.3 mm
08:00 AM 62.4°F16.9°C 48.3°F9.1°C 60% 2.0 mph E3.2 kmh E 5.0 mph8.0 kmh 30.23 in1023.7 mb - 0.00 in0.0 mm 0.01 in0.3 mm
08:10 AM 64.4°F18.0°C 50.2°F10.1°C 60% 2.0 mph E3.2 kmh E 3.0 mph4.8 kmh 30.23 in1023.7 mb - 0.00 in0.0 mm 0.01 in0.3 mm
08:20 AM 64.8°F18.2°C 50.2°F10.1°C 59% 3.0 mph E4.8 kmh E 5.0 mph8.0 kmh 30.23 in1023.7 mb - 0.00 in0.0 mm 0.01 in0.3 mm
08:30 AM 64.8°F18.2°C 48.7°F9.3°C 56% 2.0 mph ENE3.2 kmh ENE 3.0 mph4.8 kmh 30.23 in1023.7 mb - 0.00 in0.0 mm 0.01 in0.3 mm
08:40 AM 65.2°F18.4°C 50.5°F10.3°C 59% 5.0 mph ENE8.0 kmh ENE 8.0 mph12.9 kmh 30.23 in1023.7 mb - 0.00 in0.0 mm 0.01 in0.3 mm
08:50 AM 66.6°F19.2°C 49.4°F9.7°C 54% 3.0 mph NE4.8 kmh NE 6.0 mph9.7 kmh 30.23 in1023.7 mb - 0.00 in0.0 mm 0.01 in0.3 mm
09:00 AM 66.7°F19.3°C 50.0°F10.0°C 55% 3.0 mph NE4.8 kmh NE 3.0 mph4.8 kmh 30.23 in1023.7 mb - 0.00 in0.0 mm 0.01 in0.3 mm
09:10 AM 68.0°F20.0°C 48.1°F8.9°C 49% 1.0 mph ENE1.6 kmh ENE 3.0 mph4.8 kmh 30.23 in1023.7 mb - 0.00 in0.0 mm 0.01 in0.3 mm
09:20 AM 68.6°F20.3°C 47.6°F8.7°C 47% 6.0 mph NE9.7 kmh NE 9.0 mph14.5 kmh 30.23 in1023.7 mb - 0.00 in0.0 mm 0.01 in0.3 mm
09:30 AM 67.5°F19.7°C 45.4°F7.4°C 45% 6.0 mph E9.7 kmh E 8.0 mph12.9 kmh 30.23 in1023.7 mb - 0.00 in0.0 mm 0.01 in0.3 mm
09:40 AM 67.4°F19.7°C 45.4°F7.4°C 45% 7.0 mph ENE11.3 kmh ENE 12.0 mph19.3 kmh 30.22 in1023.4 mb - 0.00 in0.0 mm 0.01 in0.3 mm
09:50 AM 67.3°F19.6°C 45.8°F7.7°C 46% 8.0 mph NE12.9 kmh NE 13.0 mph20.9 kmh 30.22 in1023.4 mb - 0.00 in0.0 mm 0.01 in0.3 mm
10:00 AM 67.4°F19.7°C 45.3°F7.4°C 45% 3.0 mph E4.8 kmh E 5.0 mph8.0 kmh 30.22 in1023.4 mb - 0.00 in0.0 mm 0.01 in0.3 mm
10:10 AM 68.0°F20.0°C 45.3°F7.4°C 44% 6.0 mph NE9.7 kmh NE 8.0 mph12.9 kmh 30.22 in1023.4 mb - 0.00 in0.0 mm 0.01 in0.3 mm
10:20 AM 68.5°F20.3°C 44.5°F6.9°C 42% 6.0 mph NE9.7 kmh NE 10.0 mph16.1 kmh 30.22 in1023.4 mb - 0.00 in0.0 mm 0.01 in0.3 mm
10:30 AM 68.8°F20.4°C 44.1°F6.7°C 41% 2.0 mph E3.2 kmh E 8.0 mph12.9 kmh 30.22 in1023.4 mb - 0.00 in0.0 mm 0.01 in0.3 mm
10:40 AM 68.4°F20.2°C 45.0°F7.2°C 43% 5.0 mph NE8.0 kmh NE 10.0 mph16.1 kmh 30.22 in1023.4 mb - 0.00 in0.0 mm 0.01 in0.3 mm
10:50 AM 69.5°F20.8°C 44.1°F6.7°C 40% 12.0 mph NE19.3 kmh NE 15.0 mph24.1 kmh 30.22 in1023.4 mb - 0.00 in0.0 mm 0.01 in0.3 mm
11:00 AM 69.7°F20.9°C 43.7°F6.5°C 39% 9.0 mph ENE14.5 kmh ENE 12.0 mph19.3 kmh 30.22 in1023.4 mb - 0.00 in0.0 mm 0.01 in0.3 mm
11:10 AM 69.3°F20.7°C 45.3°F7.4°C 42% 8.0 mph NE12.9 kmh NE 12.0 mph19.3 kmh 30.21 in1023.0 mb - 0.00 in0.0 mm 0.01 in0.3 mm
11:20 AM 70.8°F21.6°C 45.9°F7.7°C 41% 9.0 mph NE14.5 kmh NE 14.0 mph22.5 kmh 30.21 in1023.0 mb - 0.00 in0.0 mm 0.01 in0.3 mm
11:30 AM 70.7°F21.5°C 44.5°F6.9°C 39% 8.0 mph NNE12.9 kmh NNE 13.0 mph20.9 kmh 30.21 in1023.0 mb - 0.00 in0.0 mm 0.01 in0.3 mm
11:40 AM 71.2°F21.8°C 46.3°F7.9°C 41% 8.0 mph NE12.9 kmh NE 9.0 mph14.5 kmh 30.21 in1023.0 mb - 0.00 in0.0 mm 0.01 in0.3 mm
11:50 AM 72.0°F22.2°C 48.3°F9.1°C 43% 7.0 mph ENE11.3 kmh ENE 12.0 mph19.3 kmh 30.21 in1023.0 mb - 0.00 in0.0 mm 0.01 in0.3 mm
12:00 PM 71.2°F21.8°C 46.3°F7.9°C 41% 9.0 mph NE14.5 kmh NE 12.0 mph19.3 kmh 30.20 in1022.7 mb - 0.00 in0.0 mm 0.01 in0.3 mm
12:10 PM 71.9°F22.2°C 46.9°F8.3°C 41% 7.0 mph NE11.3 kmh NE 12.0 mph19.3 kmh 30.21 in1023.0 mb - 0.00 in0.0 mm 0.01 in0.3 mm
12:20 PM 71.7°F22.1°C 47.4°F8.6°C 42% 7.0 mph N11.3 kmh N 8.0 mph12.9 kmh 30.20 in1022.7 mb - 0.00 in0.0 mm 0.01 in0.3 mm
12:30 PM 72.9°F22.7°C 49.7°F9.8°C 44% 5.0 mph NNE8.0 kmh NNE 6.0 mph9.7 kmh 30.20 in1022.7 mb - 0.00 in0.0 mm 0.01 in0.3 mm
12:40 PM 72.7°F22.6°C 48.3°F9.1°C 42% 5.0 mph NE8.0 kmh NE 6.0 mph9.7 kmh 30.19 in1022.4 mb - 0.00 in0.0 mm 0.01 in0.3 mm
12:50 PM 72.6°F22.6°C 42.6°F5.9°C 34% 9.0 mph ENE14.5 kmh ENE 12.0 mph19.3 kmh 30.19 in1022.4 mb - 0.00 in0.0 mm 0.01 in0.3 mm
01:00 PM 71.9°F22.2°C 44.2°F6.8°C 37% 7.0 mph NE11.3 kmh NE 12.0 mph19.3 kmh 30.19 in1022.4 mb - 0.00 in0.0 mm 0.01 in0.3 mm
01:10 PM 71.7°F22.1°C 44.7°F7.1°C 38% 6.0 mph E9.7 kmh E 9.0 mph14.5 kmh 30.19 in1022.4 mb - 0.00 in0.0 mm 0.01 in0.3 mm
01:20 PM 71.9°F22.2°C 44.9°F7.2°C 38% 8.0 mph NE12.9 kmh NE 15.0 mph24.1 kmh 30.19 in1022.4 mb - 0.00 in0.0 mm 0.01 in0.3 mm
01:30 PM 72.0°F22.2°C 45.7°F7.6°C 39% 6.0 mph NNE9.7 kmh NNE 7.0 mph11.3 kmh 30.19 in1022.4 mb - 0.00 in0.0 mm 0.01 in0.3 mm
01:40 PM 73.5°F23.1°C 45.7°F7.6°C 37% 9.0 mph NE14.5 kmh NE 12.0 mph19.3 kmh 30.18 in1022.0 mb - 0.00 in0.0 mm 0.01 in0.3 mm
01:50 PM 72.2°F22.3°C 45.2°F7.3°C 38% 5.0 mph NE8.0 kmh NE 7.0 mph11.3 kmh 30.18 in1022.0 mb - 0.00 in0.0 mm 0.01 in0.3 mm
02:00 PM 72.4°F22.4°C 44.6°F7.0°C 37% 5.0 mph E8.0 kmh E 8.0 mph12.9 kmh 30.18 in1022.0 mb - 0.00 in0.0 mm 0.01 in0.3 mm
02:10 PM 72.2°F22.3°C 45.9°F7.7°C 39% 10.0 mph NE16.1 kmh NE 14.0 mph22.5 kmh 30.18 in1022.0 mb - 0.00 in0.0 mm 0.01 in0.3 mm
02:20 PM 72.4°F22.4°C 46.7°F8.2°C 40% 5.0 mph NE8.0 kmh NE 6.0 mph9.7 kmh 30.17 in1021.7 mb - 0.00 in0.0 mm 0.01 in0.3 mm
02:30 PM 72.2°F22.3°C 47.2°F8.4°C 41% 5.0 mph E8.0 kmh E 9.0 mph14.5 kmh 30.17 in1021.7 mb - 0.00 in0.0 mm 0.01 in0.3 mm
02:40 PM 72.3°F22.4°C 46.6°F8.1°C 40% 10.0 mph NE16.1 kmh NE 13.0 mph20.9 kmh 30.17 in1021.7 mb - 0.00 in0.0 mm 0.01 in0.3 mm
02:50 PM 71.7°F22.1°C 46.1°F7.8°C 40% 9.0 mph NE14.5 kmh NE 12.0 mph19.3 kmh 30.17 in1021.7 mb - 0.00 in0.0 mm 0.01 in0.3 mm
03:00 PM 72.3°F22.4°C 47.2°F8.4°C 41% 3.0 mph ESE4.8 kmh ESE 6.0 mph9.7 kmh 30.17 in1021.7 mb - 0.00 in0.0 mm 0.01 in0.3 mm
03:10 PM 72.4°F22.4°C 48.6°F9.2°C 43% 8.0 mph ENE12.9 kmh ENE 10.0 mph16.1 kmh 30.17 in1021.7 mb - 0.00 in0.0 mm 0.01 in0.3 mm
03:20 PM 72.1°F22.3°C 46.4°F8.0°C 40% 10.0 mph ENE16.1 kmh ENE 13.0 mph20.9 kmh 30.16 in1021.3 mb - 0.00 in0.0 mm 0.01 in0.3 mm
03:30 PM 72.0°F22.2°C 48.3°F9.1°C 43% 6.0 mph NE9.7 kmh NE 8.0 mph12.9 kmh 30.16 in1021.3 mb - 0.00 in0.0 mm 0.01 in0.3 mm
03:40 PM 71.8°F22.1°C 46.2°F7.9°C 40% 8.0 mph E12.9 kmh E 12.0 mph19.3 kmh 30.16 in1021.3 mb - 0.00 in0.0 mm 0.01 in0.3 mm
03:50 PM 71.9°F22.2°C 46.3°F7.9°C 40% 7.0 mph NE11.3 kmh NE 9.0 mph14.5 kmh 30.16 in1021.3 mb - 0.00 in0.0 mm 0.01 in0.3 mm
04:00 PM 72.0°F22.2°C 47.0°F8.3°C 41% 5.0 mph E8.0 kmh E 8.0 mph12.9 kmh 30.16 in1021.3 mb - 0.00 in0.0 mm 0.01 in0.3 mm
04:10 PM 72.8°F22.7°C 49.6°F9.8°C 44% 9.0 mph NE14.5 kmh NE 13.0 mph20.9 kmh 30.16 in1021.3 mb - 0.00 in0.0 mm 0.01 in0.3 mm
04:20 PM 71.1°F21.7°C 46.8°F8.2°C 42% 9.0 mph NE14.5 kmh NE 14.0 mph22.5 kmh 30.15 in1021.0 mb - 0.00 in0.0 mm 0.01 in0.3 mm
04:30 PM 71.3°F21.8°C 48.3°F9.1°C 44% 7.0 mph ENE11.3 kmh ENE 12.0 mph19.3 kmh 30.15 in1021.0 mb - 0.00 in0.0 mm 0.01 in0.3 mm
04:40 PM 71.4°F21.9°C 47.7°F8.7°C 43% 6.0 mph NE9.7 kmh NE 10.0 mph16.1 kmh 30.15 in1021.0 mb - 0.00 in0.0 mm 0.01 in0.3 mm
05:00 PM 71.5°F21.9°C 49.6°F9.8°C 46% 5.0 mph NE8.0 kmh NE 6.0 mph9.7 kmh 30.14 in1020.7 mb - 0.00 in0.0 mm 0.01 in0.3 mm
05:10 PM 71.2°F21.8°C 49.3°F9.6°C 46% 8.0 mph NE12.9 kmh NE 13.0 mph20.9 kmh 30.15 in1021.0 mb - 0.00 in0.0 mm 0.01 in0.3 mm
05:20 PM 70.9°F21.6°C 49.0°F9.4°C 46% 7.0 mph ENE11.3 kmh ENE 7.0 mph11.3 kmh 30.14 in1020.7 mb - 0.00 in0.0 mm 0.01 in0.3 mm
05:30 PM 70.7°F21.5°C 48.9°F9.4°C 46% 7.0 mph NNE11.3 kmh NNE 10.0 mph16.1 kmh 30.14 in1020.7 mb - 0.00 in0.0 mm 0.01 in0.3 mm
06:00 PM 65.2°F18.4°C 32.1°F0.1°C 29% 2.2 mph E3.5 kmh E 5.0 mph8.0 kmh 30.10 in1019.3 mb - 0.00 in0.0 mm 0.01 in0.3 mm
06:30 PM 63.2°F17.3°C 32.8°F0.4°C 32% 2.3 mph ENE3.7 kmh ENE 5.0 mph8.0 kmh 30.10 in1019.3 mb - 0.00 in0.0 mm 0.01 in0.3 mm
07:00 PM 62.0°F16.7°C 34.7°F1.5°C 36% 0.7 mph E1.1 kmh E 3.0 mph4.8 kmh 30.10 in1019.3 mb - 0.00 in0.0 mm 0.01 in0.3 mm
07:30 PM 60.1°F15.6°C 36.3°F2.4°C 41% Calm Calm -- 30.10 in1019.3 mb - 0.00 in0.0 mm 0.01 in0.3 mm
08:00 PM 58.7°F14.8°C 38.5°F3.6°C 47% 2.6 mph E4.2 kmh E 4.0 mph6.4 kmh 30.11 in1019.6 mb - 0.00 in0.0 mm 0.01 in0.3 mm
08:30 PM 58.0°F14.4°C 41.9°F5.5°C 55% 3.0 mph ENE4.8 kmh ENE 6.0 mph9.7 kmh 30.12 in1020.0 mb - 0.00 in0.0 mm 0.01 in0.3 mm
09:00 PM 57.4°F14.1°C 43.2°F6.2°C 59% 3.4 mph ENE5.5 kmh ENE 9.0 mph14.5 kmh 30.12 in1020.0 mb - 0.00 in0.0 mm 0.01 in0.3 mm
09:30 PM 56.3°F13.5°C 44.3°F6.8°C 64% 4.2 mph ENE6.8 kmh ENE 8.0 mph12.9 kmh 30.12 in1020.0 mb - 0.00 in0.0 mm 0.01 in0.3 mm
10:00 PM 55.9°F13.3°C 43.1°F6.2°C 62% 3.8 mph ENE6.1 kmh ENE 7.0 mph11.3 kmh 30.12 in1020.0 mb - 0.00 in0.0 mm 0.01 in0.3 mm
10:30 PM 55.1°F12.8°C 42.7°F5.9°C 63% 3.1 mph ENE5.0 kmh ENE 5.0 mph8.0 kmh 30.12 in1020.0 mb - 0.00 in0.0 mm 0.01 in0.3 mm
10:40 PM 56.0°F13.3°C 49.3°F9.6°C 78% 0.6 mph E1.0 kmh E 1.0 mph1.6 kmh 30.18 in1022.0 mb - 0.00 in0.0 mm 0.01 in0.3 mm
10:50 PM 55.2°F12.9°C 49.1°F9.5°C 80% 0.3 mph E0.5 kmh E 2.0 mph3.2 kmh 30.18 in1022.0 mb - 0.00 in0.0 mm 0.01 in0.3 mm
11:00 PM 54.1°F12.3°C 42.6°F5.9°C 65% 2.2 mph ENE3.5 kmh ENE 7.0 mph11.3 kmh 30.12 in1020.0 mb - 0.00 in0.0 mm 0.01 in0.3 mm
11:30 PM 53.5°F11.9°C 41.6°F5.3°C 64% 4.3 mph ENE6.9 kmh ENE 7.0 mph11.3 kmh 30.12 in1020.0 mb - 0.00 in0.0 mm 0.01 in0.3 mm